sensor_id;sensor_type;location;lat;lon;timestamp;P1;durP1;ratioP1;P2;durP2;ratioP2
70270;SDS011;57680;54.292;18.598;2023-08-17T00:01:27;5.73;;;1.80;;
70270;SDS011;57680;54.292;18.598;2023-08-17T00:03:53;3.97;;;1.70;;
70270;SDS011;57680;54.292;18.598;2023-08-17T00:06:18;5.57;;;1.70;;
70270;SDS011;57680;54.292;18.598;2023-08-17T00:08:43;4.50;;;2.00;;
70270;SDS011;57680;54.292;18.598;2023-08-17T00:11:09;5.80;;;1.80;;
70270;SDS011;57680;54.292;18.598;2023-08-17T00:13:34;5.87;;;2.00;;
70270;SDS011;57680;54.292;18.598;2023-08-17T00:16:00;4.72;;;1.77;;
70270;SDS011;57680;54.292;18.598;2023-08-17T00:18:25;8.43;;;1.93;;
70270;SDS011;57680;54.292;18.598;2023-08-17T00:20:51;5.47;;;1.60;;
70270;SDS011;57680;54.292;18.598;2023-08-17T00:23:16;4.57;;;1.80;;
70270;SDS011;57680;54.292;18.598;2023-08-17T00:25:42;4.67;;;1.90;;
70270;SDS011;57680;54.292;18.598;2023-08-17T00:28:07;5.77;;;2.00;;
70270;SDS011;57680;54.292;18.598;2023-08-17T00:30:33;4.87;;;1.70;;
70270;SDS011;57680;54.292;18.598;2023-08-17T00:32:59;5.78;;;2.05;;
70270;SDS011;57680;54.292;18.598;2023-08-17T00:35:24;5.20;;;1.90;;
70270;SDS011;57680;54.292;18.598;2023-08-17T00:37:49;5.23;;;1.80;;
70270;SDS011;57680;54.292;18.598;2023-08-17T00:40:15;5.53;;;2.10;;
70270;SDS011;57680;54.292;18.598;2023-08-17T00:42:40;5.13;;;2.10;;
70270;SDS011;57680;54.292;18.598;2023-08-17T00:45:05;5.47;;;1.90;;
70270;SDS011;57680;54.292;18.598;2023-08-17T00:47:31;5.17;;;1.97;;
70270;SDS011;57680;54.292;18.598;2023-08-17T00:49:57;6.43;;;1.77;;
70270;SDS011;57680;54.292;18.598;2023-08-17T00:52:23;5.90;;;1.80;;
70270;SDS011;57680;54.292;18.598;2023-08-17T00:54:48;5.22;;;2.00;;
70270;SDS011;57680;54.292;18.598;2023-08-17T00:57:14;6.17;;;1.90;;
70270;SDS011;57680;54.292;18.598;2023-08-17T00:59:39;5.57;;;1.97;;
70270;SDS011;57680;54.292;18.598;2023-08-17T01:02:05;5.63;;;1.63;;
70270;SDS011;57680;54.292;18.598;2023-08-17T01:04:31;4.83;;;1.63;;
70270;SDS011;57680;54.292;18.598;2023-08-17T01:06:56;6.40;;;1.90;;
70270;SDS011;57680;54.292;18.598;2023-08-17T01:09:22;6.22;;;1.70;;
70270;SDS011;57680;54.292;18.598;2023-08-17T01:11:49;3.83;;;1.70;;
70270;SDS011;57680;54.292;18.598;2023-08-17T01:14:32;5.40;;;2.00;;
70270;SDS011;57680;54.292;18.598;2023-08-17T01:17:06;5.30;;;1.80;;
70270;SDS011;57680;54.292;18.598;2023-08-17T01:19:34;5.47;;;1.90;;
70270;SDS011;57680;54.292;18.598;2023-08-17T01:22:03;5.83;;;1.90;;
70270;SDS011;57680;54.292;18.598;2023-08-17T01:24:29;5.55;;;1.90;;
70270;SDS011;57680;54.292;18.598;2023-08-17T01:26:55;6.20;;;1.90;;
70270;SDS011;57680;54.292;18.598;2023-08-17T01:29:20;5.30;;;1.70;;
70270;SDS011;57680;54.292;18.598;2023-08-17T01:34:24;6.63;;;1.90;;
70270;SDS011;57680;54.292;18.598;2023-08-17T01:36:52;6.93;;;1.98;;
70270;SDS011;57680;54.292;18.598;2023-08-17T01:39:21;9.38;;;2.35;;
70270;SDS011;57680;54.292;18.598;2023-08-17T01:41:52;5.38;;;1.95;;
70270;SDS011;57680;54.292;18.598;2023-08-17T01:44:20;7.97;;;1.93;;
70270;SDS011;57680;54.292;18.598;2023-08-17T01:46:46;7.72;;;2.20;;
70270;SDS011;57680;54.292;18.598;2023-08-17T01:49:11;5.87;;;2.00;;
70270;SDS011;57680;54.292;18.598;2023-08-17T01:51:36;6.53;;;1.80;;
70270;SDS011;57680;54.292;18.598;2023-08-17T01:54:01;5.47;;;2.20;;
70270;SDS011;57680;54.292;18.598;2023-08-17T01:56:27;5.67;;;2.00;;
70270;SDS011;57680;54.292;18.598;2023-08-17T01:58:52;5.60;;;2.05;;
70270;SDS011;57680;54.292;18.598;2023-08-17T02:01:18;7.87;;;2.30;;
70270;SDS011;57680;54.292;18.598;2023-08-17T02:03:43;6.47;;;2.23;;
70270;SDS011;57680;54.292;18.598;2023-08-17T02:06:08;5.33;;;2.03;;
70270;SDS011;57680;54.292;18.598;2023-08-17T02:08:34;6.20;;;1.70;;
70270;SDS011;57680;54.292;18.598;2023-08-17T02:10:59;4.97;;;1.90;;
70270;SDS011;57680;54.292;18.598;2023-08-17T02:13:24;6.60;;;2.07;;
70270;SDS011;57680;54.292;18.598;2023-08-17T02:15:50;6.53;;;2.40;;
70270;SDS011;57680;54.292;18.598;2023-08-17T02:18:15;6.53;;;2.30;;
70270;SDS011;57680;54.292;18.598;2023-08-17T02:20:40;6.87;;;2.20;;
70270;SDS011;57680;54.292;18.598;2023-08-17T02:23:06;5.63;;;2.00;;
70270;SDS011;57680;54.292;18.598;2023-08-17T02:25:31;5.87;;;2.23;;
70270;SDS011;57680;54.292;18.598;2023-08-17T02:27:56;6.57;;;2.20;;
70270;SDS011;57680;54.292;18.598;2023-08-17T02:30:22;8.47;;;2.60;;
70270;SDS011;57680;54.292;18.598;2023-08-17T02:32:53;5.70;;;2.15;;
70270;SDS011;57680;54.292;18.598;2023-08-17T02:35:18;7.30;;;2.30;;
70270;SDS011;57680;54.292;18.598;2023-08-17T02:37:43;6.10;;;2.40;;
70270;SDS011;57680;54.292;18.598;2023-08-17T02:40:09;5.73;;;2.13;;
70270;SDS011;57680;54.292;18.598;2023-08-17T02:42:35;5.53;;;2.00;;
70270;SDS011;57680;54.292;18.598;2023-08-17T02:45:00;7.53;;;2.17;;
70270;SDS011;57680;54.292;18.598;2023-08-17T02:47:25;7.53;;;2.10;;
70270;SDS011;57680;54.292;18.598;2023-08-17T02:49:50;7.53;;;2.07;;
70270;SDS011;57680;54.292;18.598;2023-08-17T02:52:16;7.70;;;2.30;;
70270;SDS011;57680;54.292;18.598;2023-08-17T02:54:41;4.03;;;1.60;;
70270;SDS011;57680;54.292;18.598;2023-08-17T02:57:06;5.20;;;1.90;;
70270;SDS011;57680;54.292;18.598;2023-08-17T02:59:31;6.90;;;1.73;;
70270;SDS011;57680;54.292;18.598;2023-08-17T03:01:57;7.40;;;2.47;;
70270;SDS011;57680;54.292;18.598;2023-08-17T03:04:22;6.03;;;1.87;;
70270;SDS011;57680;54.292;18.598;2023-08-17T03:06:47;8.33;;;2.07;;
70270;SDS011;57680;54.292;18.598;2023-08-17T03:09:13;7.13;;;2.10;;
70270;SDS011;57680;54.292;18.598;2023-08-17T03:11:38;5.47;;;1.80;;
70270;SDS011;57680;54.292;18.598;2023-08-17T03:14:03;6.53;;;2.10;;
70270;SDS011;57680;54.292;18.598;2023-08-17T03:16:29;6.70;;;1.90;;
70270;SDS011;57680;54.292;18.598;2023-08-17T03:18:54;6.07;;;1.97;;
70270;SDS011;57680;54.292;18.598;2023-08-17T03:21:20;6.27;;;1.80;;
70270;SDS011;57680;54.292;18.598;2023-08-17T03:23:45;5.63;;;1.77;;
70270;SDS011;57680;54.292;18.598;2023-08-17T03:26:10;8.33;;;2.00;;
70270;SDS011;57680;54.292;18.598;2023-08-17T03:28:36;8.00;;;2.40;;
70270;SDS011;57680;54.292;18.598;2023-08-17T03:31:02;4.97;;;1.90;;
70270;SDS011;57680;54.292;18.598;2023-08-17T03:33:27;6.30;;;2.00;;
70270;SDS011;57680;54.292;18.598;2023-08-17T03:35:52;6.93;;;2.10;;
70270;SDS011;57680;54.292;18.598;2023-08-17T03:38:18;6.45;;;1.90;;
70270;SDS011;57680;54.292;18.598;2023-08-17T03:40:43;4.37;;;1.80;;
70270;SDS011;57680;54.292;18.598;2023-08-17T03:43:08;6.70;;;2.00;;
70270;SDS011;57680;54.292;18.598;2023-08-17T03:45:34;7.27;;;2.03;;
70270;SDS011;57680;54.292;18.598;2023-08-17T03:47:59;4.57;;;1.83;;
70270;SDS011;57680;54.292;18.598;2023-08-17T03:50:25;5.83;;;1.70;;
70270;SDS011;57680;54.292;18.598;2023-08-17T03:52:52;3.97;;;1.55;;
70270;SDS011;57680;54.292;18.598;2023-08-17T03:55:18;5.73;;;1.80;;
70270;SDS011;57680;54.292;18.598;2023-08-17T03:57:43;5.00;;;1.90;;
70270;SDS011;57680;54.292;18.598;2023-08-17T04:00:08;4.20;;;1.50;;
70270;SDS011;57680;54.292;18.598;2023-08-17T04:02:34;6.90;;;1.90;;
70270;SDS011;57680;54.292;18.598;2023-08-17T04:04:59;3.87;;;1.60;;
70270;SDS011;57680;54.292;18.598;2023-08-17T04:07:24;6.90;;;1.60;;
70270;SDS011;57680;54.292;18.598;2023-08-17T04:09:50;6.30;;;1.70;;
70270;SDS011;57680;54.292;18.598;2023-08-17T04:12:15;8.33;;;1.60;;
70270;SDS011;57680;54.292;18.598;2023-08-17T04:14:40;4.77;;;1.50;;
70270;SDS011;57680;54.292;18.598;2023-08-17T04:17:06;3.20;;;1.27;;
70270;SDS011;57680;54.292;18.598;2023-08-17T04:19:31;6.03;;;1.43;;
70270;SDS011;57680;54.292;18.598;2023-08-17T04:21:56;5.60;;;1.60;;
70270;SDS011;57680;54.292;18.598;2023-08-17T04:24:22;5.53;;;1.30;;
70270;SDS011;57680;54.292;18.598;2023-08-17T04:26:47;4.40;;;1.40;;
70270;SDS011;57680;54.292;18.598;2023-08-17T04:29:12;4.73;;;1.53;;
70270;SDS011;57680;54.292;18.598;2023-08-17T04:31:38;5.60;;;1.75;;
70270;SDS011;57680;54.292;18.598;2023-08-17T04:34:03;5.07;;;1.60;;
70270;SDS011;57680;54.292;18.598;2023-08-17T04:36:28;4.37;;;1.50;;
70270;SDS011;57680;54.292;18.598;2023-08-17T04:38:54;6.77;;;1.90;;
70270;SDS011;57680;54.292;18.598;2023-08-17T04:41:19;5.83;;;1.70;;
70270;SDS011;57680;54.292;18.598;2023-08-17T04:43:44;5.80;;;1.77;;
70270;SDS011;57680;54.292;18.598;2023-08-17T04:46:10;4.82;;;1.73;;
70270;SDS011;57680;54.292;18.598;2023-08-17T04:48:35;7.10;;;2.10;;
70270;SDS011;57680;54.292;18.598;2023-08-17T04:51:00;5.70;;;1.83;;
70270;SDS011;57680;54.292;18.598;2023-08-17T04:53:26;6.20;;;1.60;;
70270;SDS011;57680;54.292;18.598;2023-08-17T04:55:51;4.53;;;1.70;;
70270;SDS011;57680;54.292;18.598;2023-08-17T04:58:16;8.53;;;1.93;;
70270;SDS011;57680;54.292;18.598;2023-08-17T05:00:42;5.07;;;1.90;;
70270;SDS011;57680;54.292;18.598;2023-08-17T05:03:07;6.33;;;1.80;;
70270;SDS011;57680;54.292;18.598;2023-08-17T05:05:32;7.27;;;1.80;;
70270;SDS011;57680;54.292;18.598;2023-08-17T05:07:58;8.53;;;2.27;;
70270;SDS011;57680;54.292;18.598;2023-08-17T05:10:23;5.77;;;2.10;;
70270;SDS011;57680;54.292;18.598;2023-08-17T05:12:48;8.30;;;2.03;;
70270;SDS011;57680;54.292;18.598;2023-08-17T05:15:14;9.37;;;1.93;;
70270;SDS011;57680;54.292;18.598;2023-08-17T05:17:39;6.65;;;1.90;;
70270;SDS011;57680;54.292;18.598;2023-08-17T05:20:05;8.33;;;2.57;;
70270;SDS011;57680;54.292;18.598;2023-08-17T05:22:30;6.13;;;2.40;;
70270;SDS011;57680;54.292;18.598;2023-08-17T05:24:56;7.07;;;2.00;;
70270;SDS011;57680;54.292;18.598;2023-08-17T05:27:21;6.80;;;2.10;;
70270;SDS011;57680;54.292;18.598;2023-08-17T05:29:46;6.63;;;2.60;;
70270;SDS011;57680;54.292;18.598;2023-08-17T05:32:11;10.23;;;2.70;;
70270;SDS011;57680;54.292;18.598;2023-08-17T05:34:37;8.50;;;2.90;;
70270;SDS011;57680;54.292;18.598;2023-08-17T05:37:02;10.77;;;2.83;;
70270;SDS011;57680;54.292;18.598;2023-08-17T05:39:27;11.07;;;3.47;;
70270;SDS011;57680;54.292;18.598;2023-08-17T05:41:53;8.48;;;2.70;;
70270;SDS011;57680;54.292;18.598;2023-08-17T05:44:18;6.80;;;2.60;;
70270;SDS011;57680;54.292;18.598;2023-08-17T05:46:43;10.70;;;2.87;;
70270;SDS011;57680;54.292;18.598;2023-08-17T05:49:09;10.40;;;3.60;;
70270;SDS011;57680;54.292;18.598;2023-08-17T05:51:34;10.63;;;3.60;;
70270;SDS011;57680;54.292;18.598;2023-08-17T05:54:00;9.07;;;3.73;;
70270;SDS011;57680;54.292;18.598;2023-08-17T05:56:25;8.30;;;3.60;;
70270;SDS011;57680;54.292;18.598;2023-08-17T05:58:50;10.95;;;3.92;;
70270;SDS011;57680;54.292;18.598;2023-08-17T06:01:16;10.43;;;3.73;;
70270;SDS011;57680;54.292;18.598;2023-08-17T06:03:41;13.20;;;4.63;;
70270;SDS011;57680;54.292;18.598;2023-08-17T06:06:06;13.40;;;5.70;;
70270;SDS011;57680;54.292;18.598;2023-08-17T06:08:32;10.63;;;4.13;;
70270;SDS011;57680;54.292;18.598;2023-08-17T06:10:57;12.93;;;4.53;;
70270;SDS011;57680;54.292;18.598;2023-08-17T06:13:22;13.47;;;4.83;;
70270;SDS011;57680;54.292;18.598;2023-08-17T06:15:48;15.27;;;5.37;;
70270;SDS011;57680;54.292;18.598;2023-08-17T06:18:13;13.37;;;5.50;;
70270;SDS011;57680;54.292;18.598;2023-08-17T06:20:38;16.33;;;5.83;;
70270;SDS011;57680;54.292;18.598;2023-08-17T06:23:04;12.23;;;5.63;;
70270;SDS011;57680;54.292;18.598;2023-08-17T06:25:29;13.80;;;5.30;;
70270;SDS011;57680;54.292;18.598;2023-08-17T06:27:54;13.90;;;5.10;;
70270;SDS011;57680;54.292;18.598;2023-08-17T06:30:20;12.80;;;4.57;;
70270;SDS011;57680;54.292;18.598;2023-08-17T06:32:45;11.40;;;5.20;;
70270;SDS011;57680;54.292;18.598;2023-08-17T06:35:10;12.43;;;4.83;;
70270;SDS011;57680;54.292;18.598;2023-08-17T06:37:36;11.67;;;4.93;;
70270;SDS011;57680;54.292;18.598;2023-08-17T06:40:04;13.73;;;4.97;;
70270;SDS011;57680;54.292;18.598;2023-08-17T06:42:30;10.93;;;4.67;;
70270;SDS011;57680;54.292;18.598;2023-08-17T06:44:55;15.80;;;4.95;;
70270;SDS011;57680;54.292;18.598;2023-08-17T06:47:21;9.60;;;4.50;;
70270;SDS011;57680;54.292;18.598;2023-08-17T06:49:46;11.80;;;4.13;;
70270;SDS011;57680;54.292;18.598;2023-08-17T06:52:11;10.27;;;4.40;;
70270;SDS011;57680;54.292;18.598;2023-08-17T06:54:37;10.80;;;4.30;;
70270;SDS011;57680;54.292;18.598;2023-08-17T06:57:02;10.60;;;4.20;;
70270;SDS011;57680;54.292;18.598;2023-08-17T06:59:27;12.33;;;4.47;;
70270;SDS011;57680;54.292;18.598;2023-08-17T07:01:53;11.93;;;4.40;;
70270;SDS011;57680;54.292;18.598;2023-08-17T07:04:18;11.80;;;4.37;;
70270;SDS011;57680;54.292;18.598;2023-08-17T07:06:44;12.00;;;5.00;;
70270;SDS011;57680;54.292;18.598;2023-08-17T07:09:09;9.70;;;4.30;;
70270;SDS011;57680;54.292;18.598;2023-08-17T07:11:34;10.75;;;4.97;;
70270;SDS011;57680;54.292;18.598;2023-08-17T07:13:59;10.80;;;4.97;;
70270;SDS011;57680;54.292;18.598;2023-08-17T07:16:25;14.07;;;5.20;;
70270;SDS011;57680;54.292;18.598;2023-08-17T07:18:50;13.40;;;4.90;;
70270;SDS011;57680;54.292;18.598;2023-08-17T07:21:15;14.57;;;4.93;;
70270;SDS011;57680;54.292;18.598;2023-08-17T07:23:43;10.07;;;4.97;;
70270;SDS011;57680;54.292;18.598;2023-08-17T07:26:09;12.73;;;5.10;;
70270;SDS011;57680;54.292;18.598;2023-08-17T07:28:35;10.50;;;4.60;;
70270;SDS011;57680;54.292;18.598;2023-08-17T07:31:00;11.50;;;4.80;;
70270;SDS011;57680;54.292;18.598;2023-08-17T07:33:25;12.65;;;5.10;;
70270;SDS011;57680;54.292;18.598;2023-08-17T07:35:51;11.83;;;4.67;;
70270;SDS011;57680;54.292;18.598;2023-08-17T07:38:16;10.57;;;4.70;;
70270;SDS011;57680;54.292;18.598;2023-08-17T07:40:41;11.90;;;5.10;;
70270;SDS011;57680;54.292;18.598;2023-08-17T07:43:07;11.60;;;5.30;;
70270;SDS011;57680;54.292;18.598;2023-08-17T07:45:32;11.13;;;4.90;;
70270;SDS011;57680;54.292;18.598;2023-08-17T07:47:57;10.80;;;4.40;;
70270;SDS011;57680;54.292;18.598;2023-08-17T07:50:23;11.23;;;4.17;;
70270;SDS011;57680;54.292;18.598;2023-08-17T07:52:48;10.53;;;4.43;;
70270;SDS011;57680;54.292;18.598;2023-08-17T07:55:13;14.53;;;4.30;;
70270;SDS011;57680;54.292;18.598;2023-08-17T07:57:39;8.97;;;3.90;;
70270;SDS011;57680;54.292;18.598;2023-08-17T08:00:04;12.00;;;4.27;;
70270;SDS011;57680;54.292;18.598;2023-08-17T08:02:30;8.63;;;3.50;;
70270;SDS011;57680;54.292;18.598;2023-08-17T08:04:55;8.27;;;3.43;;
70270;SDS011;57680;54.292;18.598;2023-08-17T08:07:21;8.43;;;4.00;;
70270;SDS011;57680;54.292;18.598;2023-08-17T08:09:46;9.97;;;3.90;;
70270;SDS011;57680;54.292;18.598;2023-08-17T08:12:11;8.80;;;3.37;;
70270;SDS011;57680;54.292;18.598;2023-08-17T08:14:36;9.10;;;3.47;;
70270;SDS011;57680;54.292;18.598;2023-08-17T08:17:02;10.63;;;3.90;;
70270;SDS011;57680;54.292;18.598;2023-08-17T08:19:27;9.17;;;3.57;;
70270;SDS011;57680;54.292;18.598;2023-08-17T08:21:52;8.80;;;3.10;;
70270;SDS011;57680;54.292;18.598;2023-08-17T08:24:18;8.30;;;3.20;;
70270;SDS011;57680;54.292;18.598;2023-08-17T08:26:43;8.57;;;3.30;;
70270;SDS011;57680;54.292;18.598;2023-08-17T08:29:08;6.73;;;2.60;;
70270;SDS011;57680;54.292;18.598;2023-08-17T08:31:33;6.60;;;2.80;;
70270;SDS011;57680;54.292;18.598;2023-08-17T08:33:59;7.83;;;2.83;;
70270;SDS011;57680;54.292;18.598;2023-08-17T08:36:24;7.87;;;2.20;;
70270;SDS011;57680;54.292;18.598;2023-08-17T08:38:49;9.13;;;2.88;;
70270;SDS011;57680;54.292;18.598;2023-08-17T08:41:15;4.90;;;1.90;;
70270;SDS011;57680;54.292;18.598;2023-08-17T08:43:40;6.93;;;2.50;;
70270;SDS011;57680;54.292;18.598;2023-08-17T08:46:05;7.43;;;2.50;;
70270;SDS011;57680;54.292;18.598;2023-08-17T08:48:31;9.17;;;2.23;;
70270;SDS011;57680;54.292;18.598;2023-08-17T08:50:59;5.22;;;2.08;;
70270;SDS011;57680;54.292;18.598;2023-08-17T08:53:38;5.80;;;2.20;;
70270;SDS011;57680;54.292;18.598;2023-08-17T08:56:10;6.25;;;1.83;;
70270;SDS011;57680;54.292;18.598;2023-08-17T08:58:37;6.70;;;1.90;;
70270;SDS011;57680;54.292;18.598;2023-08-17T09:01:04;4.82;;;1.98;;
70270;SDS011;57680;54.292;18.598;2023-08-17T09:03:34;7.53;;;1.88;;
70270;SDS011;57680;54.292;18.598;2023-08-17T09:06:00;5.05;;;2.00;;
70270;SDS011;57680;54.292;18.598;2023-08-17T09:08:27;5.90;;;1.40;;
70270;SDS011;57680;54.292;18.598;2023-08-17T09:10:54;5.20;;;1.73;;
70270;SDS011;57680;54.292;18.598;2023-08-17T09:13:19;6.30;;;1.57;;
70270;SDS011;57680;54.292;18.598;2023-08-17T09:15:44;4.60;;;1.40;;
70270;SDS011;57680;54.292;18.598;2023-08-17T09:18:10;5.93;;;1.63;;
70270;SDS011;57680;54.292;18.598;2023-08-17T09:20:45;4.43;;;1.60;;
70270;SDS011;57680;54.292;18.598;2023-08-17T09:23:18;6.03;;;2.00;;
70270;SDS011;57680;54.292;18.598;2023-08-17T09:25:44;7.28;;;2.05;;
70270;SDS011;57680;54.292;18.598;2023-08-17T09:28:10;6.45;;;2.38;;
70270;SDS011;57680;54.292;18.598;2023-08-17T09:33:26;6.50;;;2.90;;
70270;SDS011;57680;54.292;18.598;2023-08-17T09:35:54;6.50;;;2.70;;
70270;SDS011;57680;54.292;18.598;2023-08-17T09:38:20;9.88;;;3.00;;
70270;SDS011;57680;54.292;18.598;2023-08-17T09:40:46;6.60;;;2.70;;
70270;SDS011;57680;54.292;18.598;2023-08-17T09:43:13;7.90;;;3.00;;
70270;SDS011;57680;54.292;18.598;2023-08-17T09:45:39;6.25;;;2.72;;
70270;SDS011;57680;54.292;18.598;2023-08-17T09:48:08;6.57;;;2.40;;
70270;SDS011;57680;54.292;18.598;2023-08-17T09:50:34;6.40;;;2.60;;
70270;SDS011;57680;54.292;18.598;2023-08-17T09:53:00;9.63;;;2.92;;
70270;SDS011;57680;54.292;18.598;2023-08-17T09:55:29;7.78;;;2.60;;
70270;SDS011;57680;54.292;18.598;2023-08-17T09:57:55;5.40;;;2.30;;
70270;SDS011;57680;54.292;18.598;2023-08-17T10:00:21;6.83;;;2.30;;
70270;SDS011;57680;54.292;18.598;2023-08-17T10:02:50;5.70;;;2.20;;
70270;SDS011;57680;54.292;18.598;2023-08-17T10:05:17;6.82;;;2.75;;
70270;SDS011;57680;54.292;18.598;2023-08-17T10:07:45;4.67;;;1.77;;
70270;SDS011;57680;54.292;18.598;2023-08-17T10:10:16;5.75;;;2.20;;
70270;SDS011;57680;54.292;18.598;2023-08-17T10:12:53;6.97;;;1.90;;
70270;SDS011;57680;54.292;18.598;2023-08-17T10:15:32;5.28;;;2.05;;
70270;SDS011;57680;54.292;18.598;2023-08-17T10:20:45;6.07;;;2.10;;
70270;SDS011;57680;54.292;18.598;2023-08-17T10:23:19;5.30;;;1.90;;
70270;SDS011;57680;54.292;18.598;2023-08-17T10:25:47;7.45;;;2.20;;
70270;SDS011;57680;54.292;18.598;2023-08-17T10:28:14;4.18;;;1.90;;
70270;SDS011;57680;54.292;18.598;2023-08-17T10:30:40;4.55;;;1.80;;
70270;SDS011;57680;54.292;18.598;2023-08-17T10:33:06;6.73;;;1.80;;
70270;SDS011;57680;54.292;18.598;2023-08-17T10:35:33;4.78;;;1.83;;
70270;SDS011;57680;54.292;18.598;2023-08-17T10:37:59;5.00;;;1.73;;
70270;SDS011;57680;54.292;18.598;2023-08-17T10:40:27;5.30;;;1.60;;
70270;SDS011;57680;54.292;18.598;2023-08-17T10:42:54;4.65;;;1.75;;
70270;SDS011;57680;54.292;18.598;2023-08-17T10:47:59;4.30;;;1.60;;
70270;SDS011;57680;54.292;18.598;2023-08-17T10:50:30;6.35;;;1.90;;
70270;SDS011;57680;54.292;18.598;2023-08-17T10:52:56;5.03;;;2.00;;
70270;SDS011;57680;54.292;18.598;2023-08-17T10:58:22;6.85;;;2.22;;
70270;SDS011;57680;54.292;18.598;2023-08-17T11:00:48;5.00;;;1.77;;
70270;SDS011;57680;54.292;18.598;2023-08-17T11:03:20;5.35;;;2.03;;
70270;SDS011;57680;54.292;18.598;2023-08-17T11:11:01;4.75;;;2.28;;
70270;SDS011;57680;54.292;18.598;2023-08-17T11:13:28;5.53;;;2.00;;
70270;SDS011;57680;54.292;18.598;2023-08-17T11:15:55;6.25;;;2.30;;
70270;SDS011;57680;54.292;18.598;2023-08-17T11:18:20;5.13;;;2.10;;
70270;SDS011;57680;54.292;18.598;2023-08-17T11:20:46;6.13;;;2.55;;
70270;SDS011;57680;54.292;18.598;2023-08-17T11:23:12;6.00;;;2.13;;
70270;SDS011;57680;54.292;18.598;2023-08-17T11:25:37;5.43;;;2.37;;
70270;SDS011;57680;54.292;18.598;2023-08-17T11:28:03;7.10;;;2.80;;
70270;SDS011;57680;54.292;18.598;2023-08-17T11:30:28;6.30;;;2.92;;
70270;SDS011;57680;54.292;18.598;2023-08-17T11:32:54;6.00;;;2.53;;
70270;SDS011;57680;54.292;18.598;2023-08-17T11:35:21;6.68;;;2.33;;
70270;SDS011;57680;54.292;18.598;2023-08-17T11:37:47;7.07;;;2.30;;
70270;SDS011;57680;54.292;18.598;2023-08-17T11:40:13;10.55;;;2.80;;
70270;SDS011;57680;54.292;18.598;2023-08-17T11:42:39;6.97;;;2.63;;
70270;SDS011;57680;54.292;18.598;2023-08-17T11:45:05;7.80;;;2.63;;
70270;SDS011;57680;54.292;18.598;2023-08-17T11:47:31;8.05;;;2.85;;
70270;SDS011;57680;54.292;18.598;2023-08-17T11:50:00;9.17;;;2.63;;
70270;SDS011;57680;54.292;18.598;2023-08-17T11:52:27;7.22;;;3.03;;
70270;SDS011;57680;54.292;18.598;2023-08-17T11:54:56;6.55;;;2.50;;
70270;SDS011;57680;54.292;18.598;2023-08-17T11:57:22;5.90;;;2.50;;
70270;SDS011;57680;54.292;18.598;2023-08-17T11:59:47;6.33;;;2.60;;
70270;SDS011;57680;54.292;18.598;2023-08-17T12:02:13;8.63;;;2.80;;
70270;SDS011;57680;54.292;18.598;2023-08-17T12:04:38;8.33;;;2.80;;
70270;SDS011;57680;54.292;18.598;2023-08-17T12:07:03;6.83;;;2.37;;
70270;SDS011;57680;54.292;18.598;2023-08-17T12:09:31;10.13;;;3.10;;
70270;SDS011;57680;54.292;18.598;2023-08-17T12:12:00;6.40;;;2.53;;
70270;SDS011;57680;54.292;18.598;2023-08-17T12:14:27;10.00;;;2.70;;
70270;SDS011;57680;54.292;18.598;2023-08-17T12:16:52;6.72;;;2.50;;
70270;SDS011;57680;54.292;18.598;2023-08-17T12:19:21;6.77;;;2.50;;
70270;SDS011;57680;54.292;18.598;2023-08-17T12:21:48;7.15;;;2.33;;
70270;SDS011;57680;54.292;18.598;2023-08-17T12:24:14;6.03;;;2.40;;
70270;SDS011;57680;54.292;18.598;2023-08-17T12:26:48;5.77;;;2.50;;
70270;SDS011;57680;54.292;18.598;2023-08-17T12:29:13;8.35;;;2.80;;
70270;SDS011;57680;54.292;18.598;2023-08-17T12:31:39;7.90;;;2.87;;
70270;SDS011;57680;54.292;18.598;2023-08-17T12:34:05;9.65;;;3.20;;
70270;SDS011;57680;54.292;18.598;2023-08-17T12:36:31;8.90;;;2.93;;
70270;SDS011;57680;54.292;18.598;2023-08-17T12:38:56;6.40;;;2.03;;
70270;SDS011;57680;54.292;18.598;2023-08-17T12:41:22;5.17;;;1.77;;
70270;SDS011;57680;54.292;18.598;2023-08-17T12:43:47;7.77;;;2.70;;
70270;SDS011;57680;54.292;18.598;2023-08-17T12:46:12;7.47;;;2.20;;
70270;SDS011;57680;54.292;18.598;2023-08-17T12:48:38;6.50;;;2.10;;
70270;SDS011;57680;54.292;18.598;2023-08-17T12:51:04;7.05;;;2.40;;
70270;SDS011;57680;54.292;18.598;2023-08-17T12:53:29;5.67;;;2.13;;
70270;SDS011;57680;54.292;18.598;2023-08-17T12:55:55;5.73;;;2.10;;
70270;SDS011;57680;54.292;18.598;2023-08-17T12:58:20;6.20;;;1.80;;
70270;SDS011;57680;54.292;18.598;2023-08-17T13:00:45;6.80;;;2.00;;
70270;SDS011;57680;54.292;18.598;2023-08-17T13:03:11;6.80;;;2.10;;
70270;SDS011;57680;54.292;18.598;2023-08-17T13:05:36;7.67;;;2.43;;
70270;SDS011;57680;54.292;18.598;2023-08-17T13:08:01;6.57;;;2.07;;
70270;SDS011;57680;54.292;18.598;2023-08-17T13:10:27;6.07;;;2.27;;
70270;SDS011;57680;54.292;18.598;2023-08-17T13:12:52;6.93;;;2.17;;
70270;SDS011;57680;54.292;18.598;2023-08-17T13:15:18;5.57;;;2.27;;
70270;SDS011;57680;54.292;18.598;2023-08-17T13:17:43;9.77;;;2.20;;
70270;SDS011;57680;54.292;18.598;2023-08-17T13:20:08;7.37;;;2.07;;
70270;SDS011;57680;54.292;18.598;2023-08-17T13:22:34;9.80;;;1.83;;
70270;SDS011;57680;54.292;18.598;2023-08-17T13:24:59;8.20;;;1.90;;
70270;SDS011;57680;54.292;18.598;2023-08-17T13:27:25;6.60;;;2.23;;
70270;SDS011;57680;54.292;18.598;2023-08-17T13:29:50;7.03;;;2.47;;
70270;SDS011;57680;54.292;18.598;2023-08-17T13:32:15;4.83;;;1.93;;
70270;SDS011;57680;54.292;18.598;2023-08-17T13:34:40;7.37;;;1.87;;
70270;SDS011;57680;54.292;18.598;2023-08-17T13:37:06;5.73;;;2.00;;
70270;SDS011;57680;54.292;18.598;2023-08-17T13:39:31;7.78;;;2.60;;
70270;SDS011;57680;54.292;18.598;2023-08-17T13:41:56;5.17;;;1.90;;
70270;SDS011;57680;54.292;18.598;2023-08-17T13:44:22;4.13;;;1.63;;
70270;SDS011;57680;54.292;18.598;2023-08-17T13:46:47;5.87;;;1.90;;
70270;SDS011;57680;54.292;18.598;2023-08-17T13:49:12;5.87;;;2.13;;
70270;SDS011;57680;54.292;18.598;2023-08-17T13:51:37;6.03;;;2.30;;
70270;SDS011;57680;54.292;18.598;2023-08-17T13:54:03;7.67;;;1.90;;
70270;SDS011;57680;54.292;18.598;2023-08-17T13:56:28;6.03;;;2.20;;
70270;SDS011;57680;54.292;18.598;2023-08-17T13:58:53;6.20;;;1.93;;
70270;SDS011;57680;54.292;18.598;2023-08-17T14:01:19;7.27;;;2.33;;
70270;SDS011;57680;54.292;18.598;2023-08-17T14:03:44;6.78;;;2.05;;
70270;SDS011;57680;54.292;18.598;2023-08-17T14:06:09;8.57;;;2.20;;
70270;SDS011;57680;54.292;18.598;2023-08-17T14:08:35;8.40;;;2.33;;
70270;SDS011;57680;54.292;18.598;2023-08-17T14:11:00;10.13;;;2.30;;
70270;SDS011;57680;54.292;18.598;2023-08-17T14:13:26;8.93;;;2.47;;
70270;SDS011;57680;54.292;18.598;2023-08-17T14:15:51;10.48;;;2.40;;
70270;SDS011;57680;54.292;18.598;2023-08-17T14:18:16;8.10;;;2.43;;
70270;SDS011;57680;54.292;18.598;2023-08-17T14:20:41;8.60;;;2.40;;
70270;SDS011;57680;54.292;18.598;2023-08-17T14:23:07;7.17;;;2.37;;
70270;SDS011;57680;54.292;18.598;2023-08-17T14:25:32;8.03;;;2.40;;
70270;SDS011;57680;54.292;18.598;2023-08-17T14:27:58;11.60;;;2.87;;
70270;SDS011;57680;54.292;18.598;2023-08-17T14:30:23;8.57;;;2.15;;
70270;SDS011;57680;54.292;18.598;2023-08-17T14:32:50;5.50;;;2.07;;
70270;SDS011;57680;54.292;18.598;2023-08-17T14:35:15;7.07;;;2.40;;
70270;SDS011;57680;54.292;18.598;2023-08-17T14:37:40;8.90;;;2.60;;
70270;SDS011;57680;54.292;18.598;2023-08-17T14:40:06;6.87;;;2.67;;
70270;SDS011;57680;54.292;18.598;2023-08-17T14:42:32;8.52;;;3.00;;
70270;SDS011;57680;54.292;18.598;2023-08-17T14:44:57;8.77;;;2.43;;